createdAt,value
2022-11-15T00:00:56.665Z,9.77
2022-11-15T00:03:25.457Z,13.48
2022-11-15T00:05:52.213Z,10.10
2022-11-15T00:08:19.333Z,5.40
2022-11-15T00:10:58.791Z,7.65
2022-11-15T00:13:25.494Z,9.88
2022-11-15T00:15:52.185Z,5.22
2022-11-15T00:18:19.247Z,5.57
2022-11-15T00:20:45.976Z,6.53
2022-11-15T00:23:12.667Z,8.43
2022-11-15T00:25:39.392Z,11.85
2022-11-15T00:28:06.086Z,11.88
2022-11-15T00:30:32.833Z,8.93
2022-11-15T00:33:04.077Z,5.68
2022-11-15T00:35:33.271Z,6.32
2022-11-15T00:38:00.402Z,4.25
2022-11-15T00:40:27.074Z,4.32
2022-11-15T00:42:54.028Z,10.40
2022-11-15T00:45:20.748Z,8.68
2022-11-15T00:47:47.592Z,11.70
2022-11-15T00:50:15.511Z,7.18
2022-11-15T00:52:42.541Z,11.65
2022-11-15T00:55:19.245Z,8.15
2022-11-15T00:57:46.351Z,10.40
2022-11-15T01:00:13.537Z,7.28
2022-11-15T01:02:40.251Z,7.18
2022-11-15T01:05:07.491Z,8.10
2022-11-15T01:07:34.287Z,11.15
2022-11-15T01:10:01.145Z,8.98
2022-11-15T01:12:27.897Z,10.93
2022-11-15T01:14:54.606Z,4.25
2022-11-15T01:17:21.295Z,9.05
2022-11-15T01:19:47.960Z,8.80
2022-11-15T01:22:14.637Z,11.02
2022-11-15T01:24:41.402Z,12.43
2022-11-15T01:27:08.326Z,6.15
2022-11-15T01:29:35.294Z,9.75
2022-11-15T01:32:02.186Z,7.05
2022-11-15T01:34:28.853Z,11.10
2022-11-15T01:36:55.578Z,6.88
2022-11-15T01:39:22.439Z,6.97
2022-11-15T01:41:49.110Z,9.68
2022-11-15T01:44:41.895Z,8.55
2022-11-15T01:47:18.500Z,11.50
2022-11-15T01:50:12.170Z,4.65
2022-11-15T01:52:38.913Z,12.95
2022-11-15T01:55:22.692Z,7.72
2022-11-15T01:57:52.901Z,9.55
2022-11-15T02:00:19.628Z,5.80
2022-11-15T02:02:46.303Z,13.10
2022-11-15T02:05:13.137Z,4.90
2022-11-15T02:07:39.838Z,13.48
2022-11-15T02:10:14.709Z,5.75
2022-11-15T02:12:41.397Z,6.78
2022-11-15T02:15:08.282Z,7.60
2022-11-15T02:17:48.151Z,9.32
2022-11-15T02:21:05.022Z,8.95
2022-11-15T02:23:43.554Z,10.13
2022-11-15T02:26:41.543Z,6.70
2022-11-15T02:29:39.659Z,10.60
2022-11-15T02:32:19.694Z,5.28
2022-11-15T02:34:55.337Z,10.57
2022-11-15T02:37:46.297Z,13.02
2022-11-15T02:40:31.459Z,3.35
2022-11-15T02:43:19.619Z,7.70
2022-11-15T02:45:49.353Z,8.48
2022-11-15T02:48:16.687Z,14.82
2022-11-15T02:50:43.575Z,8.25
2022-11-15T02:53:10.473Z,17.17
2022-11-15T02:55:40.087Z,6.15
2022-11-15T02:58:18.797Z,9.30
2022-11-15T03:01:10.017Z,5.53
2022-11-15T03:03:59.797Z,7.15
2022-11-15T03:06:37.483Z,8.32
2022-11-15T03:09:39.299Z,7.60
2022-11-15T03:12:21.244Z,4.78
2022-11-15T03:15:19.256Z,8.65
2022-11-15T03:18:21.296Z,10.45
2022-11-15T03:20:48.093Z,8.57
2022-11-15T03:23:14.894Z,16.45
2022-11-15T03:25:49.777Z,8.05
2022-11-15T03:28:26.459Z,7.82
2022-11-15T03:30:53.188Z,8.50
2022-11-15T03:33:20.521Z,7.82
2022-11-15T03:35:47.184Z,9.27
2022-11-15T03:38:23.221Z,6.55
2022-11-15T03:41:02.669Z,15.95
2022-11-15T03:43:43.810Z,18.80
2022-11-15T03:46:36.989Z,20.55
2022-11-15T03:49:12.611Z,7.50
2022-11-15T03:51:39.514Z,9.27
2022-11-15T03:54:06.781Z,9.95
2022-11-15T03:56:33.584Z,10.82
2022-11-15T03:59:00.249Z,10.90
2022-11-15T04:01:26.965Z,7.88
2022-11-15T04:03:53.757Z,13.07
2022-11-15T04:06:20.407Z,13.93
2022-11-15T04:08:47.384Z,5.05
2022-11-15T04:11:14.062Z,13.85
2022-11-15T04:13:40.738Z,12.02
2022-11-15T04:16:07.566Z,15.40
2022-11-15T04:18:34.243Z,15.48
2022-11-15T04:21:19.622Z,7.80
2022-11-15T04:24:05.227Z,12.75
2022-11-15T04:26:31.879Z,11.77
2022-11-15T04:29:17.064Z,5.90
2022-11-15T04:31:43.788Z,9.60
2022-11-15T04:34:10.513Z,14.73
2022-11-15T04:36:56.023Z,5.35
2022-11-15T04:39:22.919Z,6.85
2022-11-15T04:41:49.606Z,14.45
2022-11-15T04:44:17.323Z,14.18
2022-11-15T04:46:43.991Z,18.17
2022-11-15T04:49:10.748Z,14.35
2022-11-15T04:51:37.423Z,11.38
2022-11-15T04:54:04.216Z,7.72
2022-11-15T04:56:31.065Z,11.35
2022-11-15T04:58:57.745Z,8.00
2022-11-15T05:01:24.579Z,12.45
2022-11-15T05:04:10.035Z,15.63
2022-11-15T05:06:36.956Z,11.68
2022-11-15T05:09:03.707Z,8.75
2022-11-15T05:11:30.643Z,10.00
2022-11-15T05:13:57.468Z,12.98
2022-11-15T05:16:24.406Z,15.82
2022-11-15T05:18:54.648Z,14.32
2022-11-15T05:21:21.394Z,15.80
2022-11-15T05:23:48.167Z,13.52
2022-11-15T05:26:18.476Z,18.25
2022-11-15T05:28:45.199Z,11.32
2022-11-15T05:31:15.928Z,16.85
2022-11-15T05:33:43.323Z,10.88
2022-11-15T05:36:26.873Z,10.13
2022-11-15T05:38:53.632Z,17.63
2022-11-15T05:41:21.860Z,13.38
2022-11-15T05:43:48.526Z,9.98
2022-11-15T05:46:15.425Z,9.05
2022-11-15T05:48:43.767Z,14.40
2022-11-15T05:51:11.583Z,12.88
2022-11-15T05:53:38.326Z,10.95
2022-11-15T05:56:06.613Z,18.88
2022-11-15T05:58:34.009Z,6.55
2022-11-15T06:01:01.008Z,12.02
2022-11-15T06:03:27.703Z,16.27
2022-11-15T06:05:54.454Z,19.50
2022-11-15T06:08:21.177Z,17.75
2022-11-15T06:10:47.902Z,10.77
2022-11-15T06:13:14.672Z,13.57
2022-11-15T06:15:41.354Z,15.77
2022-11-15T06:18:08.100Z,18.23
2022-11-15T06:20:34.795Z,16.92
2022-11-15T06:23:02.712Z,16.30
2022-11-15T06:25:29.827Z,15.13
2022-11-15T06:27:57.631Z,12.50
2022-11-15T06:30:24.891Z,11.38
2022-11-15T06:32:51.769Z,11.25
2022-11-15T06:35:18.488Z,21.65
2022-11-15T06:37:45.253Z,22.20
2022-11-15T06:40:12.363Z,17.75
2022-11-15T06:42:39.069Z,21.20
2022-11-15T06:45:06.295Z,17.75
2022-11-15T06:47:33.036Z,14.82
2022-11-15T06:49:59.918Z,17.70
2022-11-15T06:52:26.925Z,14.57
2022-11-15T06:54:53.713Z,13.77
2022-11-15T06:57:20.641Z,10.80
2022-11-15T06:59:47.335Z,14.48
2022-11-15T07:02:14.449Z,19.60
2022-11-15T07:04:41.224Z,16.40
2022-11-15T07:07:07.955Z,16.65
2022-11-15T07:09:34.760Z,14.80
2022-11-15T07:12:07.321Z,14.07
2022-11-15T07:14:34.857Z,12.50
2022-11-15T07:17:04.018Z,12.40
2022-11-15T07:19:30.811Z,17.27
2022-11-15T07:21:57.546Z,16.65
2022-11-15T07:24:24.304Z,14.07
2022-11-15T07:26:51.009Z,10.52
2022-11-15T07:29:17.678Z,17.58
2022-11-15T07:31:44.526Z,12.27
2022-11-15T07:34:11.242Z,11.75
2022-11-15T07:36:38.140Z,13.43
2022-11-15T07:39:04.897Z,15.15
2022-11-15T07:41:31.707Z,9.38
2022-11-15T07:43:58.551Z,9.15
2022-11-15T07:46:25.337Z,11.25
2022-11-15T07:48:52.122Z,7.38
2022-11-15T07:51:18.947Z,12.93
2022-11-15T07:53:45.752Z,11.50
2022-11-15T07:56:12.794Z,7.75
2022-11-15T07:58:39.562Z,8.60
2022-11-15T08:01:07.393Z,7.10
2022-11-15T08:03:34.727Z,9.70
2022-11-15T08:06:01.648Z,8.45
2022-11-15T08:08:28.541Z,13.63
2022-11-15T08:10:55.271Z,8.52
2022-11-15T08:13:22.415Z,6.82
2022-11-15T08:15:53.433Z,13.18
2022-11-15T08:18:23.170Z,10.05
2022-11-15T08:20:49.931Z,8.32
2022-11-15T08:23:16.910Z,7.05
2022-11-15T08:25:43.754Z,8.35
2022-11-15T08:28:11.150Z,5.22
2022-11-15T08:30:39.054Z,8.25
2022-11-15T08:33:05.928Z,3.95
2022-11-15T08:35:32.791Z,5.32
2022-11-15T08:37:59.538Z,7.93
2022-11-15T08:40:27.908Z,5.65
2022-11-15T08:42:54.885Z,5.40
2022-11-15T08:45:21.791Z,4.60
2022-11-15T08:47:53.987Z,3.13
2022-11-15T08:50:21.080Z,3.28
2022-11-15T08:52:49.210Z,4.65
2022-11-15T08:55:17.527Z,4.55
2022-11-15T08:57:44.634Z,5.95
2022-11-15T09:00:13.079Z,5.03
2022-11-15T09:02:40.386Z,5.22
2022-11-15T09:05:07.906Z,3.88
2022-11-15T09:07:34.666Z,7.57
2022-11-15T09:10:01.464Z,3.58
2022-11-15T09:12:28.630Z,4.35
2022-11-15T09:14:55.700Z,4.07
2022-11-15T09:17:24.877Z,2.97
2022-11-15T09:19:52.010Z,4.03
2022-11-15T09:22:19.073Z,1.90
2022-11-15T09:24:45.778Z,3.20
2022-11-15T09:27:14.277Z,3.95
2022-11-15T09:29:41.074Z,3.75
2022-11-15T09:32:08.653Z,2.92
2022-11-15T09:34:35.498Z,1.88
2022-11-15T09:37:02.482Z,4.80
2022-11-15T09:39:29.206Z,4.53
2022-11-15T09:42:26.739Z,2.15
2022-11-15T09:44:53.570Z,3.80
2022-11-15T09:47:39.215Z,3.28
2022-11-15T09:50:33.827Z,3.25
2022-11-15T09:55:38.016Z,4.85
2022-11-15T09:58:30.674Z,2.67
2022-11-15T10:00:57.800Z,3.28
2022-11-15T10:03:30.249Z,4.88
2022-11-15T10:06:00.157Z,5.55
2022-11-15T10:08:46.300Z,4.85
2022-11-15T10:14:25.380Z,3.55
2022-11-15T10:17:07.853Z,2.53
2022-11-15T10:20:05.610Z,3.97
2022-11-15T10:22:47.983Z,5.07
2022-11-15T10:25:14.842Z,5.90
2022-11-15T10:27:42.236Z,1.77
2022-11-15T10:30:14.202Z,4.40
2022-11-15T10:32:45.030Z,3.08
2022-11-15T10:35:22.466Z,5.97
2022-11-15T10:37:49.204Z,7.82
2022-11-15T10:40:23.542Z,5.95
2022-11-15T10:43:09.284Z,4.25
2022-11-15T10:45:36.165Z,3.53
2022-11-15T10:48:23.842Z,3.45
2022-11-15T10:50:52.039Z,3.33
2022-11-15T10:53:21.135Z,7.57
2022-11-15T10:55:49.453Z,3.45
2022-11-15T10:58:39.125Z,7.00
2022-11-15T11:01:20.434Z,4.72
2022-11-15T11:04:03.088Z,3.75
2022-11-15T11:06:30.034Z,2.67
2022-11-15T11:09:02.236Z,3.47
2022-11-15T11:11:49.167Z,3.63
2022-11-15T11:14:24.029Z,5.28
2022-11-15T11:16:54.068Z,3.85
2022-11-15T11:19:32.940Z,1.40
2022-11-15T11:22:31.069Z,3.58
2022-11-15T11:25:19.964Z,1.98
2022-11-15T11:27:56.070Z,3.88
2022-11-15T11:31:08.465Z,3.60
2022-11-15T11:33:42.246Z,1.10
2022-11-15T11:36:30.717Z,2.95
2022-11-15T11:38:59.150Z,5.68
2022-11-15T11:41:47.550Z,4.38
2022-11-15T11:44:29.362Z,1.48
2022-11-15T11:47:03.226Z,5.25
2022-11-15T11:49:53.825Z,3.03
2022-11-15T11:52:31.515Z,2.20
2022-11-15T11:55:17.227Z,0.82
2022-11-15T11:58:12.707Z,6.00
2022-11-15T12:01:11.427Z,5.95
2022-11-15T12:03:52.376Z,1.75
2022-11-15T12:06:19.058Z,1.90
2022-11-15T12:08:52.054Z,1.50
2022-11-15T12:11:55.079Z,7.70
2022-11-15T12:14:39.750Z,2.47
2022-11-15T12:17:08.444Z,5.63
2022-11-15T12:19:35.899Z,1.85
2022-11-15T12:22:11.900Z,7.97
2022-11-15T12:24:46.723Z,3.88
2022-11-15T12:27:39.377Z,7.18
2022-11-15T12:30:26.959Z,6.15
2022-11-15T12:32:54.349Z,3.80
2022-11-15T12:35:40.363Z,4.35
2022-11-15T12:38:10.864Z,4.05
2022-11-15T12:40:39.249Z,4.70
2022-11-15T12:43:15.325Z,3.60
2022-11-15T12:45:43.759Z,5.90
2022-11-15T12:48:21.215Z,8.77
2022-11-15T12:50:56.860Z,4.75
2022-11-15T12:53:32.808Z,3.28
2022-11-15T12:56:05.517Z,4.80
2022-11-15T12:58:59.789Z,6.40
2022-11-15T13:01:36.218Z,8.32
2022-11-15T13:04:25.714Z,4.90
2022-11-15T13:06:53.146Z,4.18
2022-11-15T13:09:36.096Z,6.10
2022-11-15T13:12:15.389Z,13.52
2022-11-15T13:14:46.073Z,12.38
2022-11-15T13:17:25.473Z,7.50
2022-11-15T13:20:11.512Z,5.28
2022-11-15T13:23:04.637Z,6.57
2022-11-15T13:25:40.280Z,9.65
2022-11-15T13:28:14.776Z,2.20
2022-11-15T13:30:47.554Z,9.50
2022-11-15T13:33:20.412Z,8.52
2022-11-15T13:35:48.826Z,5.90
2022-11-15T13:38:30.435Z,6.60
2022-11-15T13:40:58.328Z,12.70
2022-11-15T13:43:35.132Z,7.03
2022-11-15T13:46:08.346Z,10.98
2022-11-15T13:48:35.403Z,6.32
2022-11-15T13:51:08.161Z,8.55
2022-11-15T13:53:34.901Z,6.22
2022-11-15T13:56:01.676Z,9.02
2022-11-15T13:58:28.570Z,7.38
2022-11-15T14:01:02.895Z,7.22
2022-11-15T14:03:31.344Z,7.95
2022-11-15T14:06:04.716Z,8.07
2022-11-15T14:08:31.767Z,5.32
2022-11-15T14:11:15.950Z,22.08
2022-11-15T14:13:42.989Z,8.73
2022-11-15T14:16:25.547Z,14.35
2022-11-15T14:18:53.346Z,11.30
2022-11-15T14:21:20.711Z,12.55
2022-11-15T14:23:47.542Z,8.43
2022-11-15T14:26:34.193Z,9.90
2022-11-15T14:29:26.297Z,10.05
2022-11-15T14:31:54.282Z,10.07
2022-11-15T14:34:23.077Z,6.82
2022-11-15T14:36:49.792Z,11.65
2022-11-15T14:39:16.469Z,11.07
2022-11-15T14:41:43.255Z,6.28
2022-11-15T14:44:11.363Z,7.03
2022-11-15T14:46:42.163Z,12.25
2022-11-15T14:49:08.931Z,8.55
2022-11-15T14:51:35.674Z,9.55
2022-11-15T14:54:02.492Z,8.70
2022-11-15T14:56:29.182Z,12.18
2022-11-15T14:58:56.280Z,13.60
2022-11-15T15:01:26.060Z,11.82
2022-11-15T15:03:55.051Z,7.65
2022-11-15T15:06:21.797Z,6.38
2022-11-15T15:08:51.334Z,10.07
2022-11-15T15:11:28.573Z,16.23
2022-11-15T15:13:59.191Z,6.78
2022-11-15T15:16:26.001Z,9.85
2022-11-15T15:18:52.789Z,7.88
2022-11-15T15:21:21.387Z,6.57
2022-11-15T15:23:48.316Z,13.40
2022-11-15T15:26:15.265Z,10.63
2022-11-15T15:28:42.207Z,12.02
2022-11-15T15:31:10.399Z,11.63
2022-11-15T15:33:37.493Z,10.30
2022-11-15T15:36:04.594Z,11.60
2022-11-15T15:38:32.032Z,13.90
2022-11-15T15:41:00.584Z,13.70
2022-11-15T15:43:27.344Z,14.48
2022-11-15T15:45:54.015Z,8.50
2022-11-15T15:48:20.725Z,11.10
2022-11-15T15:50:48.385Z,6.82
2022-11-15T15:53:15.268Z,8.63
2022-11-15T15:55:42.226Z,11.57
2022-11-15T15:58:09.304Z,12.60
2022-11-15T16:00:36.706Z,14.02
2022-11-15T16:03:03.760Z,7.40
2022-11-15T16:05:30.640Z,12.63
2022-11-15T16:07:57.295Z,13.23
2022-11-15T16:10:28.724Z,15.52
2022-11-15T16:12:56.169Z,21.13
2022-11-15T16:15:23.851Z,11.18
2022-11-15T16:17:58.230Z,10.32
2022-11-15T16:20:45.268Z,9.02
2022-11-15T16:23:13.493Z,11.60
2022-11-15T16:25:45.678Z,8.00
2022-11-15T16:28:29.395Z,11.48
2022-11-15T16:31:03.061Z,7.60
2022-11-15T16:33:29.983Z,8.82
2022-11-15T16:35:56.831Z,13.00
2022-11-15T16:38:23.789Z,10.77
2022-11-15T16:40:53.941Z,16.13
2022-11-15T16:43:21.380Z,12.25
2022-11-15T16:45:48.107Z,11.82
2022-11-15T16:48:25.551Z,15.40
2022-11-15T16:50:55.814Z,9.30
2022-11-15T16:53:22.779Z,12.18
2022-11-15T16:56:05.591Z,17.10
2022-11-15T16:58:33.717Z,15.90
2022-11-15T17:01:01.617Z,13.25
2022-11-15T17:03:28.831Z,9.25
2022-11-15T17:05:59.246Z,13.43
2022-11-15T17:08:26.315Z,16.10
2022-11-15T17:10:52.977Z,14.55
2022-11-15T17:13:19.671Z,18.02
2022-11-15T17:15:46.680Z,11.40
2022-11-15T17:18:15.384Z,16.95
2022-11-15T17:20:43.386Z,13.73
2022-11-15T17:23:14.398Z,7.55
2022-11-15T17:25:41.499Z,15.40
2022-11-15T17:28:08.228Z,19.70
2022-11-15T17:30:35.686Z,22.38
2022-11-15T17:33:02.425Z,16.15
2022-11-15T17:35:29.168Z,12.43
2022-11-15T17:37:55.885Z,16.75
2022-11-15T17:40:23.014Z,11.27
2022-11-15T17:42:49.782Z,11.38
2022-11-15T17:45:16.776Z,16.23
2022-11-15T17:47:43.704Z,18.02
2022-11-15T17:50:10.825Z,10.23
2022-11-15T17:52:39.270Z,14.05
2022-11-15T17:55:07.219Z,14.65
2022-11-15T17:57:42.586Z,6.82
2022-11-15T18:00:18.139Z,5.38
2022-11-15T18:02:54.181Z,12.23
2022-11-15T18:05:24.189Z,5.28
2022-11-15T18:07:52.763Z,4.13
2022-11-15T18:10:20.922Z,4.47
2022-11-15T18:12:52.304Z,7.30
2022-11-15T18:15:20.729Z,7.20
2022-11-15T18:17:47.844Z,4.32
2022-11-15T18:20:14.570Z,7.97
2022-11-15T18:22:41.387Z,6.22
2022-11-15T18:25:08.397Z,7.63
2022-11-15T18:27:35.281Z,2.50
2022-11-15T18:30:01.971Z,11.55
2022-11-15T18:32:29.358Z,7.05
2022-11-15T18:34:56.067Z,9.52
2022-11-15T18:37:22.853Z,6.68
2022-11-15T18:39:52.821Z,10.55
2022-11-15T18:42:20.780Z,5.28
2022-11-15T18:44:47.619Z,8.32
2022-11-15T18:47:14.325Z,11.18
2022-11-15T18:49:41.133Z,6.63
2022-11-15T18:52:10.906Z,5.35
2022-11-15T18:54:37.648Z,7.05
2022-11-15T18:57:04.492Z,6.50
2022-11-15T18:59:31.300Z,4.88
2022-11-15T19:01:57.964Z,7.93
2022-11-15T19:04:24.728Z,7.38
2022-11-15T19:06:52.842Z,9.63
2022-11-15T19:09:19.775Z,7.95
2022-11-15T19:11:48.179Z,8.73
2022-11-15T19:14:16.448Z,11.27
2022-11-15T19:16:44.853Z,11.13
2022-11-15T19:19:14.147Z,6.82
2022-11-15T19:21:40.984Z,10.88
2022-11-15T19:24:16.665Z,4.57
2022-11-15T19:26:44.656Z,12.23
2022-11-15T19:29:11.999Z,6.15
2022-11-15T19:31:38.862Z,9.88
2022-11-15T19:34:06.222Z,7.07
2022-11-15T19:36:40.524Z,8.85
2022-11-15T19:39:09.797Z,16.35
2022-11-15T19:41:38.496Z,14.00
2022-11-15T19:44:06.175Z,8.70
2022-11-15T19:46:33.099Z,23.83
2022-11-15T19:48:59.966Z,17.85
2022-11-15T19:51:27.792Z,11.70
2022-11-15T19:53:56.110Z,17.80
2022-11-15T19:56:22.996Z,23.95
2022-11-15T19:58:53.864Z,17.52
2022-11-15T20:01:21.584Z,15.13
2022-11-15T20:03:49.011Z,15.65
2022-11-15T20:06:20.182Z,13.48
2022-11-15T20:08:47.914Z,14.20
2022-11-15T20:11:15.639Z,15.80
2022-11-15T20:13:42.677Z,13.85
2022-11-15T20:16:10.825Z,14.65
2022-11-15T20:18:37.535Z,8.88
2022-11-15T20:21:06.316Z,11.68
2022-11-15T20:23:33.436Z,12.95
2022-11-15T20:26:00.129Z,19.05
2022-11-15T20:28:28.268Z,12.68
2022-11-15T20:30:57.079Z,15.50
2022-11-15T20:33:24.101Z,22.58
2022-11-15T20:35:50.905Z,13.23
2022-11-15T20:38:17.832Z,8.10
2022-11-15T20:40:48.046Z,10.70
2022-11-15T20:43:15.879Z,12.40
2022-11-15T20:45:46.721Z,11.60
2022-11-15T20:48:16.566Z,12.93
2022-11-15T20:50:44.396Z,15.57
2022-11-15T20:53:12.188Z,14.07
2022-11-15T20:55:43.441Z,10.30
2022-11-15T20:58:10.431Z,11.70
2022-11-15T21:00:37.313Z,16.13
2022-11-15T21:03:07.909Z,14.48
2022-11-15T21:05:44.092Z,15.95
2022-11-15T21:08:12.348Z,13.02
2022-11-15T21:11:12.449Z,10.65
2022-11-15T21:13:39.276Z,14.70
2022-11-15T21:16:06.640Z,12.73
2022-11-15T21:18:34.066Z,9.95
2022-11-15T21:21:07.679Z,10.43
2022-11-15T21:23:34.503Z,6.38
2022-11-15T21:26:01.172Z,16.83
2022-11-15T21:28:27.877Z,13.23
2022-11-15T21:30:59.136Z,13.38
2022-11-15T21:33:27.620Z,14.45
2022-11-15T21:35:55.191Z,21.30
2022-11-15T21:38:25.460Z,7.97
2022-11-15T21:40:52.688Z,13.10
2022-11-15T21:43:19.987Z,11.55
2022-11-15T21:46:04.045Z,9.18
2022-11-15T21:48:32.011Z,10.30
2022-11-15T21:51:06.611Z,15.18
2022-11-15T21:53:33.470Z,17.17
2022-11-15T21:56:03.820Z,19.92
2022-11-15T21:58:31.283Z,24.08
2022-11-15T22:01:17.574Z,13.30
2022-11-15T22:03:47.828Z,12.75
2022-11-15T22:06:17.802Z,9.38
2022-11-15T22:08:45.340Z,4.38
2022-11-15T22:11:12.128Z,10.55
2022-11-15T22:13:41.955Z,13.23
2022-11-15T22:16:08.929Z,14.27
2022-11-15T22:18:37.917Z,12.18
2022-11-15T22:21:16.487Z,11.80
2022-11-15T22:23:43.467Z,11.85
2022-11-15T22:26:23.178Z,12.68
2022-11-15T22:28:50.427Z,16.75
2022-11-15T22:31:17.281Z,6.22
2022-11-15T22:33:44.188Z,20.33
2022-11-15T22:36:11.756Z,20.63
2022-11-15T22:38:38.495Z,14.85
2022-11-15T22:41:05.521Z,14.13
2022-11-15T22:43:32.501Z,10.60
2022-11-15T22:46:00.487Z,11.77
2022-11-15T22:48:31.887Z,19.52
2022-11-15T22:50:58.951Z,13.02
2022-11-15T22:53:25.978Z,8.50
2022-11-15T22:55:57.603Z,12.13
2022-11-15T22:58:26.498Z,14.98
2022-11-15T23:00:55.098Z,10.80
2022-11-15T23:03:21.996Z,11.95
2022-11-15T23:05:49.508Z,12.35
2022-11-15T23:08:16.754Z,9.68
2022-11-15T23:11:02.290Z,13.60
2022-11-15T23:13:30.622Z,15.15
2022-11-15T23:16:25.563Z,18.75
2022-11-15T23:18:59.015Z,21.25
2022-11-15T23:21:49.858Z,9.73
2022-11-15T23:24:16.861Z,13.63
2022-11-15T23:26:44.017Z,9.95
2022-11-15T23:29:12.005Z,12.70
2022-11-15T23:32:01.964Z,8.07
2022-11-15T23:34:30.782Z,16.15
2022-11-15T23:36:57.924Z,11.60
2022-11-15T23:39:24.728Z,8.82
2022-11-15T23:41:51.422Z,13.98
2022-11-15T23:44:18.119Z,8.23
2022-11-15T23:46:44.840Z,10.80
2022-11-15T23:49:11.599Z,9.27
2022-11-15T23:51:38.406Z,6.45
2022-11-15T23:54:05.384Z,6.35
2022-11-15T23:56:32.221Z,5.18
2022-11-15T23:58:58.959Z,4.15
